Aviation Digital Data Service (ADDS)

Output produced by METARs form (1103 UTC 17 June 2019)
found at http://www.aviationweather.gov/metar/data/
 
Forecast for: PTRO (BABELTHUAP/KOROR, FM)
Text: PTRO 170851Z 1709/1806 05008KT P6SM VCSH SCT016 BKN120
Forecast period: 0900 UTC 17 June 2019 to 0600 UTC 18 June 2019
Forecast type: FROM: standard forecast or significant change
Winds: from the NE (50 degrees) at 9 MPH (8 knots; 4.1 m/s)
Visibility: 6 or more miles 10+ km)
Ceiling: 12000 feet AGL
Clouds: scattered clouds at 1600 feet AGL
broken clouds at 12000 feet AGL
Weather: VCSH  (showers in vicinity)
Text: TEMPO 1709/1713 -SHRA BKN016 OVC120
Forecast period: 0900 to 1300 UTC 17 June 2019
Forecast type: TEMPORARY: The following changes expected for less than half the time period
Visibility: missing
Ceiling: 1600 feet AGL
Clouds: broken clouds at 1600 feet AGL
overcast cloud deck at 12000 feet AGL
Weather: -SHRA  (light rain showers)